createdAt,value
2019-01-05T00:00:30.957Z,3.60
2019-01-05T00:03:17.589Z,3.50
2019-01-05T00:06:03.352Z,3.50
2019-01-05T00:08:39.302Z,3.50
2019-01-05T00:11:12.490Z,3.50
2019-01-05T00:13:51.446Z,3.60
2019-01-05T00:16:29.050Z,3.50
2019-01-05T00:19:14.652Z,3.60
2019-01-05T00:22:02.217Z,3.60
2019-01-05T00:24:32.485Z,3.60
2019-01-05T00:27:19.439Z,3.50
2019-01-05T00:29:55.324Z,3.50
2019-01-05T00:32:39.594Z,3.50
2019-01-05T00:35:24.473Z,3.60
2019-01-05T00:38:12.876Z,3.50
2019-01-05T00:40:53.461Z,3.60
2019-01-05T00:43:23.788Z,3.60
2019-01-05T00:46:10.806Z,3.70
2019-01-05T00:48:55.333Z,3.60
2019-01-05T00:51:43.795Z,3.60
2019-01-05T00:54:29.562Z,3.60
2019-01-05T00:57:01.860Z,3.50
2019-01-05T00:59:45.114Z,3.50
2019-01-05T01:02:15.502Z,3.50
2019-01-05T01:04:48.454Z,3.50
2019-01-05T01:07:33.734Z,3.50
2019-01-05T01:10:16.390Z,3.50
2019-01-05T01:13:03.194Z,3.40
2019-01-05T01:15:33.437Z,3.60
2019-01-05T01:18:06.756Z,3.60
2019-01-05T01:20:37.079Z,3.70
2019-01-05T01:23:23.439Z,3.70
2019-01-05T01:25:57.206Z,3.70
2019-01-05T01:28:33.726Z,3.80
2019-01-05T01:31:06.696Z,3.80
2019-01-05T01:33:53.401Z,3.70
2019-01-05T01:36:35.967Z,3.80
2019-01-05T01:39:13.391Z,3.80
2019-01-05T01:42:02.500Z,3.90
2019-01-05T01:44:32.822Z,3.80
2019-01-05T01:47:19.405Z,3.90
2019-01-05T01:50:06.514Z,3.80
2019-01-05T01:52:47.665Z,3.90
2019-01-05T01:55:23.985Z,3.90
2019-01-05T01:57:59.318Z,3.80
2019-01-05T02:00:36.148Z,3.80
2019-01-05T02:03:10.102Z,3.80
2019-01-05T02:05:59.407Z,3.90
2019-01-05T02:08:32.920Z,3.80
2019-01-05T02:11:12.380Z,3.80
2019-01-05T02:13:52.662Z,3.90
2019-01-05T02:16:41.064Z,3.80
2019-01-05T02:19:26.047Z,3.80
2019-01-05T02:22:05.009Z,3.90
2019-01-05T02:24:53.089Z,3.90
2019-01-05T02:28:02.538Z,3.90
2019-01-05T02:30:53.310Z,3.90
2019-01-05T02:33:44.591Z,3.90
2019-01-05T02:36:35.019Z,3.90
2019-01-05T02:39:14.126Z,3.90
2019-01-05T02:42:05.218Z,3.90
2019-01-05T02:45:02.368Z,4.00
2019-01-05T02:48:03.924Z,3.90
2019-01-05T02:51:15.006Z,3.90
2019-01-05T02:54:16.528Z,3.90
2019-01-05T02:57:22.010Z,3.90
2019-01-05T03:00:10.090Z,3.90
2019-01-05T03:03:08.647Z,3.90
2019-01-05T03:06:11.766Z,3.90
2019-01-05T03:08:53.851Z,3.80
2019-01-05T03:11:54.428Z,3.70
2019-01-05T03:15:12.039Z,3.70
2019-01-05T03:17:47.791Z,3.70
2019-01-05T03:20:39.825Z,3.70
2019-01-05T03:23:41.825Z,3.80
2019-01-05T03:26:56.830Z,3.80
2019-01-05T03:29:51.082Z,3.70
2019-01-05T03:32:42.529Z,3.70
2019-01-05T03:35:47.004Z,3.70
2019-01-05T03:38:41.512Z,3.70
2019-01-05T03:41:30.161Z,3.70
2019-01-05T03:44:18.399Z,3.80
2019-01-05T03:46:54.172Z,3.80
2019-01-05T03:49:33.439Z,3.90
2019-01-05T03:52:22.105Z,3.90
2019-01-05T03:55:09.393Z,3.90
2019-01-05T03:57:54.522Z,3.80
2019-01-05T04:00:36.383Z,3.80
2019-01-05T04:03:45.740Z,3.90
2019-01-05T04:06:53.750Z,3.90
2019-01-05T04:09:47.707Z,3.80
2019-01-05T04:12:52.876Z,3.80
2019-01-05T04:15:49.470Z,3.70
2019-01-05T04:18:39.030Z,3.70
2019-01-05T04:21:34.418Z,3.70
2019-01-05T04:24:40.797Z,3.70
2019-01-05T04:27:42.644Z,3.70
2019-01-05T04:30:37.566Z,3.70
2019-01-05T04:33:47.399Z,3.70
2019-01-05T04:36:29.106Z,3.60
2019-01-05T04:39:16.958Z,3.70
2019-01-05T04:42:06.967Z,3.70
2019-01-05T04:45:27.074Z,3.70
2019-01-05T04:48:51.451Z,3.80
2019-01-05T04:51:33.563Z,3.70
2019-01-05T04:54:55.418Z,3.70
2019-01-05T04:57:40.324Z,3.70
2019-01-05T05:00:22.403Z,3.70
2019-01-05T05:03:34.684Z,3.70
2019-01-05T05:06:13.602Z,3.70
2019-01-05T05:09:03.566Z,3.70
2019-01-05T05:12:01.972Z,3.80
2019-01-05T05:14:50.028Z,3.70
2019-01-05T05:17:56.666Z,3.70
2019-01-05T05:21:03.551Z,3.70
2019-01-05T05:23:53.390Z,3.70
2019-01-05T05:26:41.524Z,3.60
2019-01-05T05:29:49.884Z,3.60
2019-01-05T05:32:40.872Z,3.60
2019-01-05T05:35:38.102Z,3.50
2019-01-05T05:38:37.001Z,3.50
2019-01-05T05:41:25.276Z,3.40
2019-01-05T05:44:17.672Z,3.50
2019-01-05T05:47:06.139Z,3.60
2019-01-05T05:50:10.369Z,3.70
2019-01-05T05:52:55.155Z,3.60
2019-01-05T05:56:02.644Z,3.60
2019-01-05T05:59:07.037Z,3.70
2019-01-05T06:01:58.418Z,3.60
2019-01-05T06:05:09.494Z,3.50
2019-01-05T06:08:26.702Z,3.50
2019-01-05T06:11:19.112Z,3.50
2019-01-05T06:14:16.517Z,3.60
2019-01-05T06:17:12.133Z,3.60
2019-01-05T06:20:10.930Z,3.70
2019-01-05T06:23:03.797Z,3.80
2019-01-05T06:26:06.612Z,3.80
2019-01-05T06:28:56.266Z,3.70
2019-01-05T06:31:41.594Z,3.80
2019-01-05T06:34:17.590Z,3.70
2019-01-05T06:37:07.315Z,3.70
2019-01-05T06:40:13.890Z,3.70
2019-01-05T06:43:11.345Z,3.70
2019-01-05T06:46:20.973Z,3.70
2019-01-05T06:49:10.479Z,3.70
2019-01-05T06:52:10.199Z,3.70
2019-01-05T06:55:12.145Z,3.70
2019-01-05T06:58:04.917Z,3.70
2019-01-05T07:00:59.506Z,3.70
2019-01-05T07:04:07.971Z,3.60
2019-01-05T07:07:16.417Z,3.60
2019-01-05T07:09:58.233Z,3.70
2019-01-05T07:12:52.145Z,3.60
2019-01-05T07:15:43.230Z,3.70
2019-01-05T07:18:57.424Z,3.70
2019-01-05T07:21:54.416Z,3.80
2019-01-05T07:25:15.416Z,3.70
2019-01-05T07:28:03.323Z,3.70
2019-01-05T07:31:11.920Z,3.80
2019-01-05T07:34:17.799Z,3.80
2019-01-05T07:37:27.432Z,3.80
2019-01-05T07:40:29.153Z,3.90
2019-01-05T07:43:35.519Z,3.90
2019-01-05T07:46:28.521Z,3.90
2019-01-05T07:49:31.813Z,4.00
2019-01-05T07:52:34.647Z,4.00
2019-01-05T07:55:39.320Z,3.90
2019-01-05T07:58:47.730Z,4.00
2019-01-05T08:01:40.481Z,4.00
2019-01-05T08:04:59.248Z,4.10
2019-01-05T08:08:02.675Z,3.90
2019-01-05T08:11:10.445Z,4.00
2019-01-05T08:13:55.752Z,3.90
2019-01-05T08:17:03.806Z,4.10
2019-01-05T08:19:49.090Z,4.00
2019-01-05T08:22:55.332Z,4.00
2019-01-05T08:25:58.639Z,4.00
2019-01-05T08:28:57.327Z,4.20
2019-01-05T08:32:15.651Z,4.20
2019-01-05T08:35:09.977Z,4.20
2019-01-05T08:38:21.978Z,4.10
2019-01-05T08:41:18.074Z,4.20
2019-01-05T08:44:39.607Z,4.20
2019-01-05T08:47:44.861Z,4.20
2019-01-05T08:50:43.648Z,4.20
2019-01-05T08:53:34.714Z,4.40
2019-01-05T08:56:30.604Z,4.40
2019-01-05T08:59:51.956Z,4.60
2019-01-05T09:02:39.541Z,4.90
2019-01-05T09:05:41.467Z,5.20
2019-01-05T09:08:38.711Z,5.40
2019-01-05T09:11:31.482Z,5.50
2019-01-05T09:14:28.245Z,5.60
2019-01-05T09:17:39.062Z,5.60
2019-01-05T09:20:30.335Z,5.70
2019-01-05T09:23:32.246Z,5.80
2019-01-05T09:26:34.306Z,5.90
2019-01-05T09:29:54.043Z,5.90
2019-01-05T09:33:06.809Z,6.00
2019-01-05T09:36:08.501Z,6.10
2019-01-05T09:38:50.567Z,6.20
2019-01-05T09:41:49.519Z,6.30
2019-01-05T09:44:42.105Z,6.40
2019-01-05T09:47:30.185Z,6.40
2019-01-05T09:50:33.690Z,6.50
2019-01-05T09:53:59.802Z,6.60
2019-01-05T09:56:50.881Z,6.70
2019-01-05T09:59:48.276Z,6.70
2019-01-05T10:02:43.694Z,6.80
2019-01-05T10:05:40.646Z,6.90
2019-01-05T10:08:41.785Z,7.00
2019-01-05T10:11:32.884Z,7.00
2019-01-05T10:14:34.666Z,7.10
2019-01-05T10:17:11.019Z,7.10
2019-01-05T10:19:59.224Z,7.10
2019-01-05T10:23:12.573Z,7.10
2019-01-05T10:26:19.074Z,7.20
2019-01-05T10:29:10.072Z,7.30
2019-01-05T10:32:01.383Z,7.30
2019-01-05T10:35:07.765Z,7.40
2019-01-05T10:38:01.833Z,7.40
2019-01-05T10:40:50.677Z,7.50
2019-01-05T10:43:52.307Z,7.60
2019-01-05T10:46:46.262Z,7.60
2019-01-05T10:50:01.890Z,7.60
2019-01-05T10:53:09.640Z,7.60
2019-01-05T10:55:58.957Z,7.70
2019-01-05T10:59:23.562Z,7.80
2019-01-05T11:02:02.427Z,7.70
2019-01-05T11:04:58.186Z,7.80
2019-01-05T11:07:43.843Z,7.80
2019-01-05T11:10:42.526Z,7.80
2019-01-05T11:13:44.317Z,7.90
2019-01-05T11:16:17.530Z,7.80
2019-01-05T11:18:56.448Z,7.80
2019-01-05T11:21:58.135Z,7.90
2019-01-05T11:24:50.735Z,7.90
2019-01-05T11:28:01.090Z,8.00
2019-01-05T11:30:51.690Z,7.90
2019-01-05T11:33:43.056Z,8.00
2019-01-05T11:36:39.095Z,8.00
2019-01-05T11:39:36.081Z,8.10
2019-01-05T11:42:48.508Z,8.10
2019-01-05T11:45:46.004Z,8.20
2019-01-05T11:48:38.731Z,8.20
2019-01-05T11:51:34.797Z,8.20
2019-01-05T11:54:48.948Z,8.20
2019-01-05T11:57:38.799Z,8.30
2019-01-05T12:00:43.997Z,8.30
2019-01-05T12:03:38.089Z,8.30
2019-01-05T12:06:38.889Z,8.20
2019-01-05T12:09:44.916Z,8.30
2019-01-05T12:12:33.065Z,8.30
2019-01-05T12:15:31.690Z,8.40
2019-01-05T12:18:19.230Z,8.40
2019-01-05T12:21:07.394Z,8.50
2019-01-05T12:24:15.837Z,8.60
2019-01-05T12:27:26.371Z,8.60
2019-01-05T12:30:08.419Z,8.50
2019-01-05T12:33:05.347Z,8.70
2019-01-05T12:35:58.131Z,8.80
2019-01-05T12:38:53.791Z,8.80
2019-01-05T12:41:52.247Z,8.70
2019-01-05T12:44:37.151Z,8.60
2019-01-05T12:47:43.481Z,8.60
2019-01-05T12:50:54.455Z,8.70
2019-01-05T12:53:54.850Z,8.70
2019-01-05T12:56:57.774Z,8.60
2019-01-05T13:00:02.473Z,8.60
2019-01-05T13:02:58.329Z,8.50
2019-01-05T13:05:55.119Z,8.50
2019-01-05T13:08:55.848Z,8.50
2019-01-05T13:12:00.366Z,8.50
2019-01-05T13:15:06.941Z,8.40
2019-01-05T13:18:17.569Z,8.50
2019-01-05T13:21:28.015Z,8.50
2019-01-05T13:24:23.027Z,8.40
2019-01-05T13:27:10.848Z,8.40
2019-01-05T13:30:18.514Z,8.30
2019-01-05T13:33:34.068Z,8.20
2019-01-05T13:36:46.390Z,8.20
2019-01-05T13:39:55.915Z,8.20
2019-01-05T13:42:51.788Z,8.30
2019-01-05T13:45:54.409Z,8.30
2019-01-05T13:48:48.900Z,8.20
2019-01-05T13:51:33.498Z,8.30
2019-01-05T13:54:04.334Z,8.40
2019-01-05T13:56:35.756Z,8.10
2019-01-05T13:59:08.669Z,8.10
2019-01-05T14:01:38.782Z,8.00
2019-01-05T14:04:17.540Z,8.10
2019-01-05T14:06:50.165Z,8.10
2019-01-05T14:09:40.105Z,8.20
2019-01-05T14:12:14.410Z,8.10
2019-01-05T14:14:44.545Z,8.10
2019-01-05T14:17:20.718Z,8.00
2019-01-05T14:20:01.639Z,8.00
2019-01-05T14:22:31.828Z,8.00
2019-01-05T14:25:02.021Z,8.10
2019-01-05T14:27:35.386Z,8.10
2019-01-05T14:30:08.838Z,8.10
2019-01-05T14:32:44.988Z,8.00
2019-01-05T14:35:15.538Z,7.90
2019-01-05T14:38:00.985Z,7.80
2019-01-05T14:40:31.187Z,7.90
2019-01-05T14:43:01.367Z,7.80
2019-01-05T14:45:31.568Z,7.70
2019-01-05T14:48:01.675Z,7.80
2019-01-05T14:50:48.461Z,7.80
2019-01-05T14:53:18.628Z,7.90
2019-01-05T14:56:03.630Z,7.90
2019-01-05T14:58:34.126Z,7.70
2019-01-05T15:01:04.321Z,7.80
2019-01-05T15:03:52.789Z,7.80
2019-01-05T15:06:28.795Z,7.80
2019-01-05T15:09:08.022Z,7.80
2019-01-05T15:11:50.130Z,7.70
2019-01-05T15:14:23.354Z,7.70
2019-01-05T15:16:53.552Z,7.60
2019-01-05T15:19:23.730Z,7.70
2019-01-05T15:21:56.619Z,7.70
2019-01-05T15:24:26.802Z,7.50
2019-01-05T15:27:05.839Z,7.60
2019-01-05T15:29:41.579Z,7.70
2019-01-05T15:32:11.754Z,7.70
2019-01-05T15:34:51.478Z,7.80
2019-01-05T15:37:27.644Z,7.80
2019-01-05T15:40:03.654Z,7.80
2019-01-05T15:42:42.954Z,7.70
2019-01-05T15:45:29.173Z,7.60
2019-01-05T15:47:59.359Z,7.60
2019-01-05T15:50:47.707Z,7.70
2019-01-05T15:53:23.793Z,7.70
2019-01-05T15:56:06.106Z,7.60
2019-01-05T15:58:38.711Z,7.70
2019-01-05T16:01:09.193Z,7.60
2019-01-05T16:03:55.893Z,7.60
2019-01-05T16:06:42.922Z,7.60
2019-01-05T16:09:31.194Z,7.70
2019-01-05T16:12:13.078Z,7.50
2019-01-05T16:14:59.378Z,7.40
2019-01-05T16:17:44.802Z,7.50
2019-01-05T16:20:20.896Z,7.50
2019-01-05T16:22:51.100Z,7.60
2019-01-05T16:25:28.510Z,7.70
2019-01-05T16:27:58.699Z,7.70
2019-01-05T16:30:40.669Z,7.70
2019-01-05T16:33:27.075Z,7.50
2019-01-05T16:35:59.978Z,7.60
2019-01-05T16:38:46.292Z,7.60
2019-01-05T16:41:32.831Z,7.70
2019-01-05T16:44:12.411Z,7.70
2019-01-05T16:46:58.553Z,7.70
2019-01-05T16:49:34.307Z,7.60
2019-01-05T16:52:22.533Z,7.60
2019-01-05T16:55:08.926Z,7.60
2019-01-05T16:57:47.718Z,7.70
2019-01-05T17:00:17.895Z,7.60
2019-01-05T17:02:54.033Z,7.70
2019-01-05T17:05:24.403Z,7.60
2019-01-05T17:08:06.647Z,7.60
2019-01-05T17:10:39.215Z,7.60
2019-01-05T17:13:25.467Z,7.60
2019-01-05T17:16:12.053Z,7.60
2019-01-05T17:18:47.806Z,7.70
2019-01-05T17:21:32.716Z,7.60
2019-01-05T17:24:05.303Z,7.60
2019-01-05T17:26:51.727Z,7.60
2019-01-05T17:29:33.753Z,7.50
2019-01-05T17:32:03.950Z,7.60
2019-01-05T17:34:39.705Z,7.60
2019-01-05T17:37:18.707Z,7.50
2019-01-05T17:39:54.685Z,7.50
2019-01-05T17:42:41.167Z,7.60
2019-01-05T17:45:23.212Z,7.60
2019-01-05T17:48:02.343Z,7.50
2019-01-05T17:50:35.003Z,7.50
2019-01-05T17:53:21.753Z,7.60
2019-01-05T17:56:04.118Z,7.60
2019-01-05T17:58:37.610Z,7.50
2019-01-05T18:01:10.281Z,7.60
2019-01-05T18:03:43.324Z,7.50
2019-01-05T18:06:13.502Z,7.50
2019-01-05T18:08:55.939Z,7.50
2019-01-05T18:11:31.889Z,7.50
2019-01-05T18:14:14.078Z,7.50
2019-01-05T18:16:56.225Z,7.60
2019-01-05T18:19:38.889Z,7.70
2019-01-05T18:22:25.818Z,7.70
2019-01-05T18:25:12.239Z,7.50
2019-01-05T18:27:45.380Z,7.60
2019-01-05T18:30:32.164Z,7.50
2019-01-05T18:33:02.371Z,7.50
2019-01-05T18:35:38.009Z,7.60
2019-01-05T18:38:22.923Z,7.30
2019-01-05T18:41:10.596Z,7.40
2019-01-05T18:43:57.260Z,7.40
2019-01-05T18:46:36.317Z,7.50
2019-01-05T18:49:21.857Z,7.30
2019-01-05T18:51:57.725Z,7.40
2019-01-05T18:54:44.251Z,7.20
2019-01-05T18:57:14.432Z,7.20
2019-01-05T19:00:00.818Z,7.30
2019-01-05T19:02:46.271Z,7.20
2019-01-05T19:05:19.286Z,7.20
2019-01-05T19:08:04.170Z,7.10
2019-01-05T19:10:50.632Z,7.30
2019-01-05T19:13:36.974Z,7.20
2019-01-05T19:16:07.225Z,7.20
2019-01-05T19:18:52.434Z,7.20
2019-01-05T19:21:25.947Z,7.20
2019-01-05T19:24:04.906Z,7.10
2019-01-05T19:26:37.858Z,7.10
2019-01-05T19:29:08.070Z,7.10
2019-01-05T19:31:44.180Z,7.20
2019-01-05T19:34:20.763Z,7.20
2019-01-05T19:36:57.221Z,7.20
2019-01-05T19:39:42.269Z,7.10
2019-01-05T19:42:30.432Z,7.10
2019-01-05T19:45:09.376Z,7.00
2019-01-05T19:47:42.547Z,7.10
2019-01-05T19:50:15.686Z,7.00
2019-01-05T19:53:04.426Z,7.10
2019-01-05T19:55:52.763Z,7.10
2019-01-05T19:58:39.266Z,7.10
2019-01-05T20:01:11.970Z,7.00
2019-01-05T20:03:58.787Z,7.00
2019-01-05T20:06:44.970Z,7.00
2019-01-05T20:09:15.159Z,7.10
2019-01-05T20:12:01.783Z,7.00
2019-01-05T20:14:40.945Z,6.90
2019-01-05T20:17:13.824Z,6.90
2019-01-05T20:19:46.706Z,6.90
2019-01-05T20:22:19.643Z,6.90
2019-01-05T20:24:55.568Z,6.90
2019-01-05T20:27:34.606Z,6.90
2019-01-05T20:30:21.484Z,6.90
2019-01-05T20:32:51.756Z,6.80
2019-01-05T20:35:40.151Z,6.80
2019-01-05T20:38:28.666Z,6.70
2019-01-05T20:41:15.335Z,6.70
2019-01-05T20:43:57.513Z,6.70
2019-01-05T20:46:30.207Z,6.60
2019-01-05T20:49:15.690Z,6.70
2019-01-05T20:52:02.145Z,6.60
2019-01-05T20:54:32.327Z,6.70
2019-01-05T20:57:18.856Z,6.70
2019-01-05T20:59:55.012Z,6.70
2019-01-05T21:02:40.275Z,6.70
2019-01-05T21:05:28.165Z,6.70
2019-01-05T21:08:14.809Z,6.70
2019-01-05T21:10:56.987Z,6.80
2019-01-05T21:13:33.182Z,6.80
2019-01-05T21:16:09.254Z,6.80
2019-01-05T21:18:48.409Z,6.70
2019-01-05T21:21:18.501Z,6.60
2019-01-05T21:24:05.240Z,6.70
2019-01-05T21:26:51.783Z,6.70
2019-01-05T21:29:38.650Z,6.70
2019-01-05T21:32:24.985Z,6.70
2019-01-05T21:35:01.113Z,6.80
2019-01-05T21:37:40.027Z,6.70
2019-01-05T21:40:25.599Z,6.70
2019-01-05T21:43:04.593Z,6.70
2019-01-05T21:45:51.879Z,6.80
2019-01-05T21:48:39.139Z,6.70
2019-01-05T21:51:15.315Z,6.80
2019-01-05T21:53:48.479Z,6.80
2019-01-05T21:56:21.122Z,6.90
2019-01-05T21:58:53.758Z,6.80
2019-01-05T22:01:32.902Z,6.80
2019-01-05T22:04:03.390Z,6.80
2019-01-05T22:06:36.277Z,6.80
2019-01-05T22:09:20.797Z,6.90
2019-01-05T22:11:56.798Z,6.90
2019-01-05T22:14:38.721Z,6.90
2019-01-05T22:17:25.066Z,6.80
2019-01-05T22:20:01.064Z,6.80
2019-01-05T22:22:39.925Z,6.80
2019-01-05T22:25:26.647Z,6.60
2019-01-05T22:28:02.789Z,6.70
2019-01-05T22:30:49.756Z,6.70
2019-01-05T22:33:32.232Z,6.60
2019-01-05T22:36:02.371Z,6.70
2019-01-05T22:38:44.397Z,6.60
2019-01-05T22:41:30.832Z,6.50
2019-01-05T22:44:03.459Z,6.50
2019-01-05T22:46:52.066Z,6.50
2019-01-05T22:49:25.287Z,6.60
2019-01-05T22:51:58.334Z,6.50
2019-01-05T22:54:28.512Z,6.60
2019-01-05T22:57:04.814Z,6.60
2019-01-05T22:59:41.004Z,6.50
2019-01-05T23:02:27.557Z,6.50
2019-01-05T23:05:00.845Z,6.60
2019-01-05T23:07:49.401Z,6.60
2019-01-05T23:10:19.533Z,6.60
2019-01-05T23:13:01.670Z,6.60
2019-01-05T23:15:46.906Z,6.60
2019-01-05T23:18:19.878Z,6.60
2019-01-05T23:20:53.014Z,6.60
2019-01-05T23:23:39.511Z,6.70
2019-01-05T23:26:18.827Z,6.70
2019-01-05T23:28:49.011Z,6.70
2019-01-05T23:31:22.347Z,6.60
2019-01-05T23:34:01.625Z,6.60
2019-01-05T23:36:31.760Z,6.60
2019-01-05T23:39:07.833Z,6.70
2019-01-05T23:41:38.034Z,6.70
2019-01-05T23:44:08.202Z,6.70
2019-01-05T23:46:54.989Z,6.80
2019-01-05T23:49:28.253Z,6.80
2019-01-05T23:52:14.773Z,6.80
2019-01-05T23:54:44.891Z,6.80
2019-01-05T23:57:20.793Z,6.80
2019-01-05T23:59:51.249Z,6.70
